createdAt,value
2018-02-21T00:01:09.704Z,0.86
2018-02-21T00:03:37.126Z,0.85
2018-02-21T00:06:04.549Z,0.79
2018-02-21T00:08:31.974Z,0.83
2018-02-21T00:10:59.390Z,0.83
2018-02-21T00:13:26.821Z,0.81
2018-02-21T00:15:54.232Z,0.81
2018-02-21T00:18:22.009Z,0.83
2018-02-21T00:20:49.425Z,0.82
2018-02-21T00:23:16.854Z,0.77
2018-02-21T00:25:44.274Z,0.77
2018-02-21T00:28:11.694Z,0.75
2018-02-21T00:30:39.118Z,0.73
2018-02-21T00:33:06.546Z,0.70
2018-02-21T00:35:33.962Z,0.63
2018-02-21T00:38:01.402Z,0.62
2018-02-21T00:40:28.827Z,0.57
2018-02-21T00:42:56.259Z,0.56
2018-02-21T00:45:23.670Z,0.57
2018-02-21T00:47:51.086Z,0.54
2018-02-21T00:50:18.505Z,0.47
2018-02-21T00:52:45.947Z,0.46
2018-02-21T00:55:13.390Z,0.47
2018-02-21T00:57:40.802Z,0.47
2018-02-21T01:00:08.213Z,0.45
2018-02-21T01:02:35.635Z,0.46
2018-02-21T01:05:03.058Z,0.45
2018-02-21T01:07:30.489Z,0.47
2018-02-21T01:09:57.908Z,0.42
2018-02-21T01:12:25.322Z,0.42
2018-02-21T01:14:52.745Z,0.40
2018-02-21T01:17:20.157Z,0.36
2018-02-21T01:19:47.599Z,0.39
2018-02-21T01:22:15.010Z,0.47
2018-02-21T01:24:42.428Z,0.47
2018-02-21T01:27:09.861Z,0.52
2018-02-21T01:29:37.278Z,0.48
2018-02-21T01:32:04.699Z,0.47
2018-02-21T01:34:32.125Z,0.50
2018-02-21T01:36:59.542Z,0.44
2018-02-21T01:39:26.982Z,0.36
2018-02-21T01:41:54.390Z,0.30
2018-02-21T01:44:21.818Z,0.27
2018-02-21T01:46:49.226Z,0.31
2018-02-21T01:49:16.641Z,0.28
2018-02-21T01:51:44.054Z,0.28
2018-02-21T01:54:11.489Z,0.29
2018-02-21T01:56:38.918Z,0.32
2018-02-21T01:59:06.334Z,0.38
2018-02-21T02:01:33.762Z,0.36
2018-02-21T02:04:01.181Z,0.35
2018-02-21T02:06:28.596Z,0.31
2018-02-21T02:08:56.017Z,0.29
2018-02-21T02:11:23.444Z,0.31
2018-02-21T02:13:50.855Z,0.39
2018-02-21T02:16:18.277Z,0.35
2018-02-21T02:18:45.685Z,0.44
2018-02-21T02:21:13.126Z,0.43
2018-02-21T02:23:40.551Z,0.42
2018-02-21T02:26:07.966Z,0.44
2018-02-21T02:28:35.391Z,0.42
2018-02-21T02:31:02.843Z,0.41
2018-02-21T02:33:30.269Z,0.40
2018-02-21T02:35:57.680Z,0.45
2018-02-21T02:38:36.956Z,0.46
2018-02-21T02:41:04.362Z,0.42
2018-02-21T02:43:31.781Z,0.37
2018-02-21T02:45:59.570Z,0.37
2018-02-21T02:48:27.005Z,0.32
2018-02-21T02:50:54.418Z,0.24
2018-02-21T02:53:21.863Z,0.26
2018-02-21T02:55:49.280Z,0.26
2018-02-21T02:58:16.694Z,0.25
2018-02-21T03:00:44.114Z,0.22
2018-02-21T03:03:11.537Z,0.20
2018-02-21T03:05:38.956Z,0.22
2018-02-21T03:08:06.383Z,0.22
2018-02-21T03:10:33.813Z,0.23
2018-02-21T03:13:01.235Z,0.25
2018-02-21T03:15:28.661Z,0.17
2018-02-21T03:17:56.069Z,0.19
2018-02-21T03:20:23.511Z,0.22
2018-02-21T03:22:50.939Z,0.26
2018-02-21T03:25:18.368Z,0.26
2018-02-21T03:27:45.773Z,0.33
2018-02-21T03:30:13.223Z,0.37
2018-02-21T03:32:40.648Z,0.29
2018-02-21T03:35:08.054Z,0.28
2018-02-21T03:37:35.477Z,0.27
2018-02-21T03:40:02.914Z,0.25
2018-02-21T03:42:30.353Z,0.27
2018-02-21T03:44:57.778Z,0.36
2018-02-21T03:47:25.200Z,0.39
2018-02-21T03:49:52.614Z,0.44
2018-02-21T03:52:20.034Z,0.46
2018-02-21T03:54:47.453Z,0.56
2018-02-21T03:57:15.355Z,0.64
2018-02-21T03:59:42.793Z,0.71
2018-02-21T04:02:10.212Z,0.82
2018-02-21T04:04:37.634Z,0.87
2018-02-21T04:07:05.050Z,0.91
2018-02-21T04:09:32.485Z,0.98
2018-02-21T04:11:59.894Z,0.98
2018-02-21T04:14:27.314Z,1.07
2018-02-21T04:16:54.733Z,1.13
2018-02-21T04:19:22.146Z,1.21
2018-02-21T04:21:49.607Z,1.18
2018-02-21T04:24:17.018Z,1.20
2018-02-21T04:26:44.438Z,1.28
2018-02-21T04:29:11.865Z,1.23
2018-02-21T04:31:39.282Z,1.31
2018-02-21T04:34:06.703Z,1.32
2018-02-21T04:36:34.122Z,1.31
2018-02-21T04:39:01.551Z,1.33
2018-02-21T04:41:28.989Z,1.36
2018-02-21T04:43:56.411Z,1.34
2018-02-21T04:46:23.826Z,1.38
2018-02-21T04:48:52.092Z,1.35
2018-02-21T04:51:19.510Z,1.38
2018-02-21T04:53:46.961Z,1.35
2018-02-21T04:56:20.003Z,1.29
2018-02-21T04:58:53.061Z,1.34
2018-02-21T05:01:20.483Z,1.37
2018-02-21T05:03:47.901Z,1.42
2018-02-21T05:06:15.323Z,1.41
2018-02-21T05:08:42.738Z,1.48
2018-02-21T05:11:10.158Z,1.47
2018-02-21T05:13:37.611Z,1.47
2018-02-21T05:16:05.018Z,1.40
2018-02-21T05:18:32.430Z,1.40
2018-02-21T05:20:59.856Z,1.42
2018-02-21T05:23:27.273Z,1.45
2018-02-21T05:25:54.741Z,1.47
2018-02-21T05:28:22.158Z,1.49
2018-02-21T05:30:49.624Z,1.48
2018-02-21T05:33:17.040Z,1.49
2018-02-21T05:35:44.458Z,1.55
2018-02-21T05:38:11.887Z,1.56
2018-02-21T05:40:39.299Z,1.53
2018-02-21T05:43:06.719Z,1.51
2018-02-21T05:45:34.199Z,1.57
2018-02-21T05:48:01.613Z,1.56
2018-02-21T05:50:29.073Z,1.58
2018-02-21T05:52:56.526Z,1.62
2018-02-21T05:55:23.957Z,1.63
2018-02-21T05:57:51.385Z,1.58
2018-02-21T06:00:18.798Z,1.58
2018-02-21T06:02:46.221Z,1.59
2018-02-21T06:05:13.655Z,1.61
2018-02-21T06:07:41.078Z,1.60
2018-02-21T06:10:08.498Z,1.61
2018-02-21T06:12:35.927Z,1.63
2018-02-21T06:15:03.567Z,1.63
2018-02-21T06:17:31.005Z,1.62
2018-02-21T06:19:58.446Z,1.52
2018-02-21T06:22:25.869Z,1.48
2018-02-21T06:24:53.296Z,1.52
2018-02-21T06:27:20.718Z,1.45
2018-02-21T06:29:48.147Z,1.43
2018-02-21T06:32:15.578Z,1.42
2018-02-21T06:34:43.002Z,1.38
2018-02-21T06:37:10.454Z,1.31
2018-02-21T06:39:37.874Z,1.21
2018-02-21T06:42:05.368Z,1.13
2018-02-21T06:44:32.808Z,1.13
2018-02-21T06:47:00.246Z,1.01
2018-02-21T06:49:27.674Z,0.87
2018-02-21T06:51:55.097Z,0.87
2018-02-21T06:54:22.545Z,0.86
2018-02-21T06:56:49.982Z,0.76
2018-02-21T06:59:17.668Z,0.80
2018-02-21T07:01:45.086Z,0.68
2018-02-21T07:04:12.522Z,0.63
2018-02-21T07:06:39.962Z,0.63
2018-02-21T07:09:07.398Z,0.64
2018-02-21T07:11:34.825Z,0.67
2018-02-21T07:14:02.257Z,0.61
2018-02-21T07:16:29.667Z,0.56
2018-02-21T07:18:57.094Z,0.62
2018-02-21T07:21:24.521Z,0.64
2018-02-21T07:23:52.283Z,0.75
2018-02-21T07:26:19.722Z,0.80
2018-02-21T07:28:47.137Z,0.90
2018-02-21T07:31:14.561Z,0.94
2018-02-21T07:33:41.978Z,0.92
2018-02-21T07:36:09.439Z,0.93
2018-02-21T07:38:36.854Z,0.93
2018-02-21T07:41:04.270Z,1.01
2018-02-21T07:43:31.693Z,1.08
2018-02-21T07:45:59.110Z,1.06
2018-02-21T07:48:26.797Z,0.96
2018-02-21T07:50:54.222Z,1.03
2018-02-21T07:53:21.638Z,0.99
2018-02-21T07:55:49.066Z,0.97
2018-02-21T07:58:16.487Z,0.99
2018-02-21T08:00:43.913Z,0.99
2018-02-21T08:03:11.346Z,1.07
2018-02-21T08:05:38.754Z,1.04
2018-02-21T08:08:06.182Z,1.17
2018-02-21T08:10:33.597Z,1.30
2018-02-21T08:13:01.495Z,1.30
2018-02-21T08:15:28.914Z,1.38
2018-02-21T08:17:56.332Z,1.38
2018-02-21T08:20:23.762Z,1.49
2018-02-21T08:22:51.186Z,1.50
2018-02-21T08:25:18.626Z,1.56
2018-02-21T08:27:46.046Z,1.61
2018-02-21T08:30:13.503Z,1.69
2018-02-21T08:32:40.952Z,1.79
2018-02-21T08:35:08.369Z,1.78
2018-02-21T08:37:36.256Z,1.86
2018-02-21T08:40:03.721Z,1.89
2018-02-21T08:42:31.139Z,1.91
2018-02-21T08:44:58.566Z,1.95
2018-02-21T08:47:26.014Z,2.04
2018-02-21T08:49:53.450Z,2.08
2018-02-21T08:52:20.886Z,2.14
2018-02-21T08:54:48.349Z,2.27
2018-02-21T08:57:15.800Z,2.37
2018-02-21T08:59:43.227Z,2.51
2018-02-21T09:02:10.953Z,2.60
2018-02-21T09:04:38.373Z,2.75
2018-02-21T09:07:05.794Z,2.95
2018-02-21T09:09:33.238Z,3.17
2018-02-21T09:12:00.670Z,3.23
2018-02-21T09:14:28.136Z,3.27
2018-02-21T09:16:55.566Z,3.52
2018-02-21T09:19:23.010Z,3.66
2018-02-21T09:21:50.471Z,3.58
2018-02-21T09:24:17.912Z,3.76
2018-02-21T09:26:45.343Z,4.05
2018-02-21T09:29:12.865Z,4.38
2018-02-21T09:31:40.254Z,4.65
2018-02-21T09:34:07.686Z,4.82
2018-02-21T09:36:35.124Z,4.58
2018-02-21T09:39:02.541Z,4.93
2018-02-21T09:41:29.949Z,5.04
2018-02-21T09:43:57.403Z,5.47
2018-02-21T09:46:24.828Z,5.63
2018-02-21T09:48:52.238Z,5.38
2018-02-21T09:51:19.670Z,5.59
2018-02-21T09:53:47.085Z,5.52
2018-02-21T09:56:14.521Z,5.60
2018-02-21T09:58:41.947Z,5.71
2018-02-21T10:01:09.370Z,6.11
2018-02-21T10:03:37.261Z,6.17
2018-02-21T10:06:04.682Z,5.97
2018-02-21T10:08:32.085Z,5.95
2018-02-21T10:10:59.531Z,6.28
2018-02-21T10:13:26.946Z,6.35
2018-02-21T10:15:54.378Z,6.58
2018-02-21T10:18:21.798Z,6.67
2018-02-21T10:20:49.233Z,6.88
2018-02-21T10:23:16.650Z,7.40
2018-02-21T10:25:44.093Z,7.86
2018-02-21T10:28:11.517Z,8.03
2018-02-21T10:30:38.936Z,7.78
2018-02-21T10:33:06.366Z,7.98
2018-02-21T10:35:33.826Z,8.27
2018-02-21T10:38:01.244Z,7.75
2018-02-21T10:40:28.683Z,7.69
2018-02-21T10:42:56.119Z,8.00
2018-02-21T10:45:23.567Z,8.79
2018-02-21T10:47:50.982Z,8.93
2018-02-21T10:50:18.401Z,8.71
2018-02-21T10:52:45.846Z,8.70
2018-02-21T10:55:13.268Z,8.28
2018-02-21T10:57:40.671Z,8.61
2018-02-21T11:00:08.098Z,8.56
2018-02-21T11:02:35.531Z,8.86
2018-02-21T11:05:02.946Z,8.94
2018-02-21T11:07:30.373Z,9.04
2018-02-21T11:09:57.806Z,8.66
2018-02-21T11:12:25.238Z,8.62
2018-02-21T11:14:52.658Z,8.51
2018-02-21T11:17:20.149Z,8.49
2018-02-21T11:19:47.574Z,9.12
2018-02-21T11:22:15.019Z,9.31
2018-02-21T11:24:42.442Z,9.09
2018-02-21T11:27:09.854Z,9.11
2018-02-21T11:29:37.310Z,9.34
2018-02-21T11:32:04.773Z,9.58
2018-02-21T11:34:32.459Z,9.50
2018-02-21T11:36:59.898Z,9.63
2018-02-21T11:39:27.328Z,9.37
2018-02-21T11:41:54.741Z,9.20
2018-02-21T11:44:22.153Z,8.90
2018-02-21T11:46:49.829Z,9.19
2018-02-21T11:49:17.243Z,8.81
2018-02-21T11:51:44.682Z,8.61
2018-02-21T11:54:12.122Z,8.41
2018-02-21T11:56:39.576Z,8.64
2018-02-21T11:59:07.025Z,8.27
2018-02-21T12:01:34.449Z,8.17
2018-02-21T12:04:01.875Z,8.44
2018-02-21T12:06:29.321Z,8.51
2018-02-21T12:08:56.799Z,8.78
2018-02-21T12:11:24.217Z,8.79
2018-02-21T12:13:51.660Z,8.45
2018-02-21T12:16:19.121Z,8.99
2018-02-21T12:18:46.592Z,9.18
2018-02-21T12:21:14.026Z,9.66
2018-02-21T12:23:41.441Z,9.06
2018-02-21T12:26:08.866Z,8.62
2018-02-21T12:28:36.317Z,8.43
2018-02-21T12:31:03.730Z,8.39
2018-02-21T12:33:31.146Z,8.92
2018-02-21T12:35:58.581Z,8.93
2018-02-21T12:38:26.006Z,8.86
2018-02-21T12:40:59.118Z,8.95
2018-02-21T12:43:26.550Z,9.05
2018-02-21T12:45:53.971Z,8.87
2018-02-21T12:48:21.422Z,8.72
2018-02-21T12:50:48.843Z,8.95
2018-02-21T12:53:16.283Z,8.71
2018-02-21T12:55:43.701Z,8.46
2018-02-21T12:58:11.134Z,8.12
2018-02-21T13:00:38.563Z,8.01
2018-02-21T13:03:06.002Z,8.08
2018-02-21T13:05:33.429Z,8.29
2018-02-21T13:08:00.856Z,8.26
2018-02-21T13:10:28.310Z,8.38
2018-02-21T13:12:55.729Z,8.25
2018-02-21T13:15:23.166Z,8.36
2018-02-21T13:17:50.589Z,8.35
2018-02-21T13:20:18.005Z,8.51
2018-02-21T13:22:45.453Z,8.62
2018-02-21T13:25:12.915Z,8.55
2018-02-21T13:27:40.392Z,8.53
2018-02-21T13:30:07.813Z,8.32
2018-02-21T13:32:35.214Z,8.28
2018-02-21T13:35:02.642Z,8.31
2018-02-21T13:37:30.094Z,8.07
2018-02-21T13:39:57.521Z,8.20
2018-02-21T13:42:24.942Z,8.39
2018-02-21T13:44:52.349Z,8.32
2018-02-21T13:47:19.782Z,8.10
2018-02-21T13:49:47.197Z,7.82
2018-02-21T13:52:14.614Z,7.49
2018-02-21T13:54:42.037Z,7.65
2018-02-21T13:57:09.455Z,8.03
2018-02-21T13:59:36.878Z,8.02
2018-02-21T14:02:04.309Z,8.02
2018-02-21T14:04:31.721Z,7.93
2018-02-21T14:06:59.147Z,7.94
2018-02-21T14:09:26.550Z,8.00
2018-02-21T14:11:53.978Z,8.16
2018-02-21T14:14:21.398Z,7.93
2018-02-21T14:16:48.823Z,7.66
2018-02-21T14:19:16.246Z,7.79
2018-02-21T14:21:43.661Z,7.61
2018-02-21T14:24:11.102Z,7.41
2018-02-21T14:26:38.510Z,7.32
2018-02-21T14:29:05.979Z,7.33
2018-02-21T14:31:33.346Z,7.13
2018-02-21T14:34:00.773Z,7.24
2018-02-21T14:36:28.202Z,7.05
2018-02-21T14:38:55.626Z,7.05
2018-02-21T14:41:23.041Z,6.99
2018-02-21T14:43:50.467Z,6.88
2018-02-21T14:46:17.877Z,6.85
2018-02-21T14:48:45.306Z,6.88
2018-02-21T14:51:12.716Z,6.76
2018-02-21T14:53:40.132Z,6.68
2018-02-21T14:56:07.550Z,6.63
2018-02-21T14:58:34.964Z,6.66
2018-02-21T15:01:02.389Z,6.72
2018-02-21T15:03:29.808Z,6.51
2018-02-21T15:05:57.220Z,6.46
2018-02-21T15:08:24.643Z,6.56
2018-02-21T15:10:52.058Z,6.52
2018-02-21T15:13:19.482Z,6.38
2018-02-21T15:15:46.891Z,6.43
2018-02-21T15:18:14.303Z,6.26
2018-02-21T15:20:41.722Z,6.20
2018-02-21T15:23:09.131Z,6.22
2018-02-21T15:25:36.557Z,6.17
2018-02-21T15:28:03.974Z,6.15
2018-02-21T15:30:31.386Z,6.02
2018-02-21T15:32:58.802Z,5.82
2018-02-21T15:35:26.211Z,5.85
2018-02-21T15:37:53.642Z,5.74
2018-02-21T15:40:21.063Z,5.56
2018-02-21T15:42:48.477Z,5.56
2018-02-21T15:45:15.904Z,5.64
2018-02-21T15:47:43.314Z,5.45
2018-02-21T15:50:10.750Z,5.44
2018-02-21T15:52:38.177Z,5.35
2018-02-21T15:55:05.587Z,5.33
2018-02-21T15:57:33.002Z,5.22
2018-02-21T16:00:00.417Z,5.24
2018-02-21T16:02:27.844Z,5.18
2018-02-21T16:04:55.271Z,5.17
2018-02-21T16:07:22.694Z,5.15
2018-02-21T16:09:50.130Z,5.07
2018-02-21T16:12:17.554Z,5.07
2018-02-21T16:14:45.002Z,4.98
2018-02-21T16:17:12.454Z,4.93
2018-02-21T16:19:39.874Z,4.86
2018-02-21T16:22:07.310Z,4.79
2018-02-21T16:24:34.729Z,4.77
2018-02-21T16:27:02.182Z,4.71
2018-02-21T16:29:29.614Z,4.59
2018-02-21T16:31:57.029Z,4.51
2018-02-21T16:34:24.458Z,4.48
2018-02-21T16:36:51.881Z,4.46
2018-02-21T16:39:19.311Z,4.40
2018-02-21T16:41:46.734Z,4.30
2018-02-21T16:44:14.171Z,4.24
2018-02-21T16:46:41.605Z,4.18
2018-02-21T16:49:09.021Z,4.15
2018-02-21T16:51:36.461Z,4.08
2018-02-21T16:54:09.481Z,3.99
2018-02-21T16:56:36.929Z,3.94
2018-02-21T16:59:04.341Z,3.88
2018-02-21T17:01:31.755Z,3.88
2018-02-21T17:03:59.180Z,3.89
2018-02-21T17:06:26.594Z,3.88
2018-02-21T17:08:54.022Z,3.79
2018-02-21T17:11:21.439Z,3.80
2018-02-21T17:13:48.870Z,3.78
2018-02-21T17:16:16.298Z,3.78
2018-02-21T17:18:43.726Z,3.76
2018-02-21T17:21:11.157Z,3.81
2018-02-21T17:23:38.578Z,3.81
2018-02-21T17:26:05.998Z,3.75
2018-02-21T17:28:33.426Z,3.74
2018-02-21T17:31:00.850Z,3.77
2018-02-21T17:33:28.295Z,3.78
2018-02-21T17:35:55.714Z,3.71
2018-02-21T17:38:23.141Z,3.71
2018-02-21T17:40:56.096Z,3.62
2018-02-21T17:43:23.525Z,3.59
2018-02-21T17:45:50.958Z,3.59
2018-02-21T17:48:18.399Z,3.60
2018-02-21T17:50:45.818Z,3.55
2018-02-21T17:53:13.251Z,3.52
2018-02-21T17:55:40.674Z,3.48
2018-02-21T17:58:08.102Z,3.46
2018-02-21T18:00:35.521Z,3.48
2018-02-21T18:03:02.941Z,3.45
2018-02-21T18:05:30.369Z,3.40
2018-02-21T18:07:57.789Z,3.39
2018-02-21T18:10:25.231Z,3.38
2018-02-21T18:12:52.657Z,3.35
2018-02-21T18:15:20.077Z,3.30
2018-02-21T18:17:47.509Z,3.35
2018-02-21T18:20:14.933Z,3.33
2018-02-21T18:22:42.728Z,3.32
2018-02-21T18:25:10.150Z,3.23
2018-02-21T18:27:37.566Z,3.25
2018-02-21T18:30:04.998Z,3.16
2018-02-21T18:32:32.414Z,3.11
2018-02-21T18:34:59.861Z,3.17
2018-02-21T18:37:27.286Z,3.07
2018-02-21T18:39:54.705Z,2.97
2018-02-21T18:42:22.161Z,2.97
2018-02-21T18:44:49.610Z,2.92
2018-02-21T18:47:17.022Z,2.90
2018-02-21T18:49:44.476Z,2.90
2018-02-21T18:52:11.891Z,2.86
2018-02-21T18:54:39.328Z,2.85
2018-02-21T18:57:06.741Z,2.82
2018-02-21T18:59:34.166Z,2.81
2018-02-21T19:02:01.592Z,2.77
2018-02-21T19:04:29.027Z,2.74
2018-02-21T19:06:56.473Z,2.74
2018-02-21T19:09:23.903Z,2.71
2018-02-21T19:11:51.326Z,2.71
2018-02-21T19:14:18.754Z,2.67
2018-02-21T19:16:46.178Z,2.67
2018-02-21T19:19:13.607Z,2.60
2018-02-21T19:21:41.026Z,2.60
2018-02-21T19:24:08.454Z,2.56
2018-02-21T19:26:35.878Z,2.57
2018-02-21T19:29:03.298Z,2.50
2018-02-21T19:31:30.734Z,2.48
2018-02-21T19:33:58.154Z,2.42
2018-02-21T19:36:25.577Z,2.46
2018-02-21T19:38:53.002Z,2.40
2018-02-21T19:41:20.424Z,2.40
2018-02-21T19:43:47.854Z,2.36
2018-02-21T19:46:15.262Z,2.34
2018-02-21T19:48:42.685Z,2.34
2018-02-21T19:51:10.126Z,2.34
2018-02-21T19:53:38.503Z,2.32
2018-02-21T19:56:05.956Z,2.29
2018-02-21T19:58:33.366Z,2.28
2018-02-21T20:01:00.789Z,2.22
2018-02-21T20:03:28.205Z,2.24
2018-02-21T20:05:55.621Z,2.19
2018-02-21T20:08:23.057Z,2.16
2018-02-21T20:10:50.466Z,2.12
2018-02-21T20:13:17.915Z,2.10
2018-02-21T20:15:45.313Z,2.03
2018-02-21T20:18:12.735Z,2.02
2018-02-21T20:20:40.170Z,2.05
2018-02-21T20:23:07.593Z,2.00
2018-02-21T20:25:35.075Z,1.95
2018-02-21T20:28:02.577Z,1.94
2018-02-21T20:30:30.027Z,1.89
2018-02-21T20:32:57.545Z,1.92
2018-02-21T20:35:25.090Z,1.85
2018-02-21T20:37:52.497Z,1.83
2018-02-21T20:40:19.921Z,1.78
2018-02-21T20:42:47.334Z,1.82
2018-02-21T20:45:14.775Z,1.75
2018-02-21T20:47:42.189Z,1.73
2018-02-21T20:50:09.601Z,1.68
2018-02-21T20:52:37.034Z,1.63
2018-02-21T20:55:04.450Z,1.63
2018-02-21T20:57:31.877Z,1.66
2018-02-21T20:59:59.298Z,1.64
2018-02-21T21:02:26.711Z,1.64
2018-02-21T21:04:54.136Z,1.60
2018-02-21T21:07:21.556Z,1.57
2018-02-21T21:09:48.981Z,1.48
2018-02-21T21:12:16.405Z,1.50
2018-02-21T21:14:43.826Z,1.48
2018-02-21T21:17:11.244Z,1.43
2018-02-21T21:19:38.653Z,1.37
2018-02-21T21:22:06.478Z,1.40
2018-02-21T21:24:33.906Z,1.36
2018-02-21T21:27:01.326Z,1.31
2018-02-21T21:29:28.758Z,1.27
2018-02-21T21:31:56.169Z,1.30
2018-02-21T21:34:23.703Z,1.25
2018-02-21T21:36:51.113Z,1.25
2018-02-21T21:39:18.530Z,1.20
2018-02-21T21:41:45.950Z,1.18
2018-02-21T21:44:13.362Z,1.20
2018-02-21T21:46:40.790Z,1.07
2018-02-21T21:49:08.210Z,1.01
2018-02-21T21:51:35.635Z,1.02
2018-02-21T21:54:03.058Z,1.06
2018-02-21T21:56:30.504Z,0.99
2018-02-21T21:58:57.906Z,0.92
2018-02-21T22:01:25.330Z,0.90
2018-02-21T22:03:52.741Z,0.87
2018-02-21T22:06:20.162Z,0.84
2018-02-21T22:08:47.586Z,0.85
2018-02-21T22:11:15.015Z,0.87
2018-02-21T22:13:42.429Z,0.86
2018-02-21T22:16:09.842Z,0.80
2018-02-21T22:18:37.282Z,0.78
2018-02-21T22:21:04.699Z,0.73
2018-02-21T22:23:32.137Z,0.72
2018-02-21T22:25:59.561Z,0.66
2018-02-21T22:28:26.974Z,0.71
2018-02-21T22:30:54.391Z,0.68
2018-02-21T22:33:21.835Z,0.66
2018-02-21T22:35:49.253Z,0.57
2018-02-21T22:38:16.681Z,0.58
2018-02-21T22:40:44.090Z,0.60
2018-02-21T22:43:11.510Z,0.54
2018-02-21T22:45:38.926Z,0.53
2018-02-21T22:48:06.354Z,0.43
2018-02-21T22:50:33.769Z,0.48
2018-02-21T22:53:01.190Z,0.41
2018-02-21T22:55:28.626Z,0.42
2018-02-21T22:57:56.042Z,0.36
2018-02-21T23:00:23.486Z,0.32
2018-02-21T23:02:50.914Z,0.35
2018-02-21T23:05:18.330Z,0.36
2018-02-21T23:07:45.762Z,0.38
2018-02-21T23:10:13.175Z,0.39
2018-02-21T23:12:40.598Z,0.34
2018-02-21T23:15:08.015Z,0.36
2018-02-21T23:17:35.447Z,0.36
2018-02-21T23:20:02.861Z,0.35
2018-02-21T23:22:30.306Z,0.37
2018-02-21T23:24:57.835Z,0.41
2018-02-21T23:27:25.270Z,0.36
2018-02-21T23:29:52.682Z,0.39
2018-02-21T23:32:20.121Z,0.32
2018-02-21T23:34:47.549Z,0.31
2018-02-21T23:37:14.974Z,0.32
2018-02-21T23:39:42.385Z,0.30
2018-02-21T23:42:09.814Z,0.27
2018-02-21T23:44:37.247Z,0.23
2018-02-21T23:47:04.670Z,0.30
2018-02-21T23:49:32.093Z,0.26
2018-02-21T23:51:59.510Z,0.24
2018-02-21T23:54:26.959Z,0.26
2018-02-21T23:56:54.395Z,0.21
2018-02-21T23:59:21.813Z,0.17
